sensor_id;sensor_type;location;lat;lon;timestamp;P1;durP1;ratioP1;P2;durP2;ratioP2
80494;SDS011;69819;48.798;11.770;2023-06-22T00:02:13;4.28;;;3.88;;
80494;SDS011;69819;48.798;11.770;2023-06-22T00:04:39;5.68;;;3.53;;
80494;SDS011;69819;48.798;11.770;2023-06-22T00:07:05;5.78;;;4.20;;
80494;SDS011;69819;48.798;11.770;2023-06-22T00:09:31;5.05;;;4.00;;
80494;SDS011;69819;48.798;11.770;2023-06-22T00:11:58;4.68;;;3.67;;
80494;SDS011;69819;48.798;11.770;2023-06-22T00:14:24;5.55;;;4.10;;
80494;SDS011;69819;48.798;11.770;2023-06-22T00:16:50;5.22;;;3.70;;
80494;SDS011;69819;48.798;11.770;2023-06-22T00:19:22;3.97;;;3.33;;
80494;SDS011;69819;48.798;11.770;2023-06-22T00:21:48;4.55;;;3.80;;
80494;SDS011;69819;48.798;11.770;2023-06-22T00:24:18;4.28;;;3.65;;
80494;SDS011;69819;48.798;11.770;2023-06-22T00:26:50;5.95;;;4.28;;
80494;SDS011;69819;48.798;11.770;2023-06-22T00:29:16;4.07;;;3.30;;
80494;SDS011;69819;48.798;11.770;2023-06-22T00:31:43;4.43;;;3.70;;
80494;SDS011;69819;48.798;11.770;2023-06-22T00:34:09;3.88;;;3.35;;
80494;SDS011;69819;48.798;11.770;2023-06-22T00:36:35;4.60;;;3.60;;
80494;SDS011;69819;48.798;11.770;2023-06-22T00:39:01;5.03;;;3.72;;
80494;SDS011;69819;48.798;11.770;2023-06-22T00:41:27;4.72;;;4.00;;
80494;SDS011;69819;48.798;11.770;2023-06-22T00:43:53;6.82;;;3.50;;
80494;SDS011;69819;48.798;11.770;2023-06-22T00:46:20;4.20;;;3.80;;
80494;SDS011;69819;48.798;11.770;2023-06-22T00:48:48;5.55;;;3.60;;
80494;SDS011;69819;48.798;11.770;2023-06-22T00:51:16;5.00;;;3.90;;
80494;SDS011;69819;48.798;11.770;2023-06-22T00:53:42;5.88;;;3.85;;
80494;SDS011;69819;48.798;11.770;2023-06-22T00:56:08;5.75;;;3.75;;
80494;SDS011;69819;48.798;11.770;2023-06-22T00:58:37;5.30;;;4.28;;
80494;SDS011;69819;48.798;11.770;2023-06-22T01:01:06;4.75;;;3.47;;
80494;SDS011;69819;48.798;11.770;2023-06-22T01:03:32;4.60;;;3.42;;
80494;SDS011;69819;48.798;11.770;2023-06-22T01:06:01;4.68;;;3.70;;
80494;SDS011;69819;48.798;11.770;2023-06-22T01:08:41;4.10;;;3.40;;
80494;SDS011;69819;48.798;11.770;2023-06-22T01:11:37;4.32;;;3.38;;
80494;SDS011;69819;48.798;11.770;2023-06-22T01:17:06;5.15;;;3.63;;
80494;SDS011;69819;48.798;11.770;2023-06-22T01:19:47;4.40;;;3.92;;
80494;SDS011;69819;48.798;11.770;2023-06-22T01:22:21;5.53;;;4.05;;
80494;SDS011;69819;48.798;11.770;2023-06-22T01:30:42;4.33;;;3.67;;
80494;SDS011;69819;48.798;11.770;2023-06-22T01:33:11;4.82;;;3.85;;
80494;SDS011;69819;48.798;11.770;2023-06-22T01:35:39;5.55;;;4.03;;
80494;SDS011;69819;48.798;11.770;2023-06-22T01:38:06;5.03;;;3.70;;
80494;SDS011;69819;48.798;11.770;2023-06-22T01:40:34;5.70;;;3.70;;
80494;SDS011;69819;48.798;11.770;2023-06-22T01:43:02;5.13;;;3.97;;
80494;SDS011;69819;48.798;11.770;2023-06-22T01:45:29;5.20;;;3.70;;
80494;SDS011;69819;48.798;11.770;2023-06-22T01:47:55;5.05;;;3.25;;
80494;SDS011;69819;48.798;11.770;2023-06-22T01:50:22;4.53;;;3.63;;
80494;SDS011;69819;48.798;11.770;2023-06-22T01:52:47;4.90;;;4.40;;
80494;SDS011;69819;48.798;11.770;2023-06-22T01:55:13;4.63;;;3.75;;
80494;SDS011;69819;48.798;11.770;2023-06-22T01:57:39;4.15;;;3.75;;
80494;SDS011;69819;48.798;11.770;2023-06-22T02:00:07;4.78;;;3.72;;
80494;SDS011;69819;48.798;11.770;2023-06-22T02:02:57;8.68;;;4.47;;
80494;SDS011;69819;48.798;11.770;2023-06-22T02:05:34;4.30;;;3.72;;
80494;SDS011;69819;48.798;11.770;2023-06-22T02:10:46;4.25;;;3.22;;
80494;SDS011;69819;48.798;11.770;2023-06-22T02:13:14;5.30;;;3.67;;
80494;SDS011;69819;48.798;11.770;2023-06-22T02:15:41;4.10;;;3.70;;
80494;SDS011;69819;48.798;11.770;2023-06-22T02:18:07;4.65;;;3.80;;
80494;SDS011;69819;48.798;11.770;2023-06-22T02:20:36;5.45;;;4.07;;
80494;SDS011;69819;48.798;11.770;2023-06-22T02:23:02;4.57;;;3.90;;
80494;SDS011;69819;48.798;11.770;2023-06-22T02:25:28;6.18;;;4.45;;
80494;SDS011;69819;48.798;11.770;2023-06-22T02:27:54;4.38;;;3.60;;
80494;SDS011;69819;48.798;11.770;2023-06-22T02:30:20;5.32;;;3.65;;
80494;SDS011;69819;48.798;11.770;2023-06-22T02:32:45;6.45;;;3.58;;
80494;SDS011;69819;48.798;11.770;2023-06-22T02:35:11;5.68;;;3.65;;
80494;SDS011;69819;48.798;11.770;2023-06-22T02:37:37;4.03;;;3.63;;
80494;SDS011;69819;48.798;11.770;2023-06-22T02:40:06;5.90;;;3.58;;
80494;SDS011;69819;48.798;11.770;2023-06-22T02:42:39;4.55;;;3.65;;
80494;SDS011;69819;48.798;11.770;2023-06-22T02:45:05;4.90;;;4.15;;
80494;SDS011;69819;48.798;11.770;2023-06-22T02:47:31;5.22;;;4.40;;
80494;SDS011;69819;48.798;11.770;2023-06-22T02:49:57;4.60;;;3.83;;
80494;SDS011;69819;48.798;11.770;2023-06-22T02:52:23;6.32;;;4.35;;
80494;SDS011;69819;48.798;11.770;2023-06-22T02:54:49;4.28;;;3.88;;
80494;SDS011;69819;48.798;11.770;2023-06-22T02:57:15;4.45;;;3.63;;
80494;SDS011;69819;48.798;11.770;2023-06-22T02:59:41;4.47;;;3.63;;
80494;SDS011;69819;48.798;11.770;2023-06-22T03:02:07;4.72;;;4.20;;
80494;SDS011;69819;48.798;11.770;2023-06-22T03:04:36;4.65;;;3.67;;
80494;SDS011;69819;48.798;11.770;2023-06-22T03:07:02;5.43;;;4.43;;
80494;SDS011;69819;48.798;11.770;2023-06-22T03:09:28;4.95;;;4.13;;
80494;SDS011;69819;48.798;11.770;2023-06-22T03:11:55;4.75;;;3.85;;
80494;SDS011;69819;48.798;11.770;2023-06-22T03:14:21;8.35;;;4.47;;
80494;SDS011;69819;48.798;11.770;2023-06-22T03:16:47;4.50;;;4.05;;
80494;SDS011;69819;48.798;11.770;2023-06-22T03:19:13;7.13;;;4.80;;
80494;SDS011;69819;48.798;11.770;2023-06-22T03:21:39;5.93;;;4.10;;
80494;SDS011;69819;48.798;11.770;2023-06-22T03:24:05;7.47;;;4.47;;
80494;SDS011;69819;48.798;11.770;2023-06-22T03:26:32;6.05;;;4.43;;
80494;SDS011;69819;48.798;11.770;2023-06-22T03:28:59;6.53;;;4.43;;
80494;SDS011;69819;48.798;11.770;2023-06-22T03:31:25;5.05;;;4.55;;
80494;SDS011;69819;48.798;11.770;2023-06-22T03:33:51;6.00;;;4.40;;
80494;SDS011;69819;48.798;11.770;2023-06-22T03:36:17;5.65;;;4.30;;
80494;SDS011;69819;48.798;11.770;2023-06-22T03:38:44;5.05;;;4.30;;
80494;SDS011;69819;48.798;11.770;2023-06-22T03:41:14;4.95;;;4.28;;
80494;SDS011;69819;48.798;11.770;2023-06-22T03:43:41;6.38;;;4.18;;
80494;SDS011;69819;48.798;11.770;2023-06-22T03:46:07;6.35;;;4.28;;
80494;SDS011;69819;48.798;11.770;2023-06-22T03:48:33;5.88;;;4.93;;
80494;SDS011;69819;48.798;11.770;2023-06-22T03:51:00;5.80;;;4.95;;
80494;SDS011;69819;48.798;11.770;2023-06-22T03:53:30;6.65;;;5.30;;
80494;SDS011;69819;48.798;11.770;2023-06-22T03:55:56;6.85;;;5.13;;
80494;SDS011;69819;48.798;11.770;2023-06-22T03:58:22;5.50;;;4.57;;
80494;SDS011;69819;48.798;11.770;2023-06-22T04:00:48;6.15;;;4.80;;
80494;SDS011;69819;48.798;11.770;2023-06-22T04:03:16;7.40;;;5.30;;
80494;SDS011;69819;48.798;11.770;2023-06-22T04:05:45;5.65;;;5.05;;
80494;SDS011;69819;48.798;11.770;2023-06-22T04:08:12;5.13;;;4.50;;
80494;SDS011;69819;48.798;11.770;2023-06-22T04:10:39;5.75;;;5.15;;
80494;SDS011;69819;48.798;11.770;2023-06-22T04:13:05;5.47;;;4.88;;
80494;SDS011;69819;48.798;11.770;2023-06-22T04:15:30;6.20;;;5.00;;
80494;SDS011;69819;48.798;11.770;2023-06-22T04:17:56;5.78;;;5.10;;
80494;SDS011;69819;48.798;11.770;2023-06-22T04:20:22;7.55;;;5.05;;
80494;SDS011;69819;48.798;11.770;2023-06-22T04:22:52;7.38;;;5.05;;
80494;SDS011;69819;48.798;11.770;2023-06-22T04:25:19;6.68;;;5.25;;
80494;SDS011;69819;48.798;11.770;2023-06-22T04:27:45;6.65;;;4.50;;
80494;SDS011;69819;48.798;11.770;2023-06-22T04:30:12;5.85;;;4.88;;
80494;SDS011;69819;48.798;11.770;2023-06-22T04:32:40;7.03;;;4.80;;
80494;SDS011;69819;48.798;11.770;2023-06-22T04:35:06;6.22;;;4.82;;
80494;SDS011;69819;48.798;11.770;2023-06-22T04:37:33;7.35;;;4.97;;
80494;SDS011;69819;48.798;11.770;2023-06-22T04:39:59;6.63;;;5.07;;
80494;SDS011;69819;48.798;11.770;2023-06-22T04:42:28;5.90;;;4.60;;
80494;SDS011;69819;48.798;11.770;2023-06-22T04:44:54;6.00;;;4.47;;
80494;SDS011;69819;48.798;11.770;2023-06-22T04:47:20;7.25;;;5.00;;
80494;SDS011;69819;48.798;11.770;2023-06-22T04:49:46;6.50;;;4.70;;
80494;SDS011;69819;48.798;11.770;2023-06-22T04:52:12;5.25;;;4.65;;
80494;SDS011;69819;48.798;11.770;2023-06-22T04:54:39;4.63;;;4.18;;
80494;SDS011;69819;48.798;11.770;2023-06-22T04:57:12;5.13;;;4.57;;
80494;SDS011;69819;48.798;11.770;2023-06-22T04:59:39;5.68;;;4.35;;
80494;SDS011;69819;48.798;11.770;2023-06-22T05:02:06;5.38;;;4.88;;
80494;SDS011;69819;48.798;11.770;2023-06-22T05:04:33;4.68;;;4.28;;
80494;SDS011;69819;48.798;11.770;2023-06-22T05:07:03;5.00;;;4.18;;
80494;SDS011;69819;48.798;11.770;2023-06-22T05:09:29;4.53;;;4.00;;
80494;SDS011;69819;48.798;11.770;2023-06-22T05:11:56;5.13;;;4.60;;
80494;SDS011;69819;48.798;11.770;2023-06-22T05:14:22;5.97;;;4.53;;
80494;SDS011;69819;48.798;11.770;2023-06-22T05:16:48;5.47;;;4.43;;
80494;SDS011;69819;48.798;11.770;2023-06-22T05:19:17;4.70;;;4.25;;
80494;SDS011;69819;48.798;11.770;2023-06-22T05:21:43;4.35;;;3.90;;
80494;SDS011;69819;48.798;11.770;2023-06-22T05:24:08;5.40;;;4.18;;
80494;SDS011;69819;48.798;11.770;2023-06-22T05:26:34;4.95;;;4.22;;
80494;SDS011;69819;48.798;11.770;2023-06-22T05:29:01;5.03;;;4.53;;
80494;SDS011;69819;48.798;11.770;2023-06-22T05:31:28;4.45;;;4.05;;
80494;SDS011;69819;48.798;11.770;2023-06-22T05:33:55;4.93;;;4.25;;
80494;SDS011;69819;48.798;11.770;2023-06-22T05:36:21;4.82;;;4.38;;
80494;SDS011;69819;48.798;11.770;2023-06-22T05:38:50;5.22;;;4.22;;
80494;SDS011;69819;48.798;11.770;2023-06-22T05:41:17;8.98;;;5.00;;
80494;SDS011;69819;48.798;11.770;2023-06-22T05:43:43;5.07;;;4.28;;
80494;SDS011;69819;48.798;11.770;2023-06-22T05:46:09;4.63;;;4.15;;
80494;SDS011;69819;48.798;11.770;2023-06-22T05:48:35;4.70;;;4.03;;
80494;SDS011;69819;48.798;11.770;2023-06-22T05:51:00;4.53;;;3.97;;
80494;SDS011;69819;48.798;11.770;2023-06-22T05:53:26;4.03;;;3.72;;
80494;SDS011;69819;48.798;11.770;2023-06-22T05:55:52;4.30;;;3.90;;
80494;SDS011;69819;48.798;11.770;2023-06-22T05:58:18;4.07;;;3.67;;
80494;SDS011;69819;48.798;11.770;2023-06-22T06:00:44;4.63;;;3.72;;
80494;SDS011;69819;48.798;11.770;2023-06-22T06:03:10;3.88;;;3.42;;
80494;SDS011;69819;48.798;11.770;2023-06-22T06:05:36;4.57;;;3.00;;
80494;SDS011;69819;48.798;11.770;2023-06-22T06:08:03;4.63;;;3.35;;
80494;SDS011;69819;48.798;11.770;2023-06-22T06:10:31;3.33;;;3.03;;
80494;SDS011;69819;48.798;11.770;2023-06-22T06:12:58;2.95;;;2.65;;
80494;SDS011;69819;48.798;11.770;2023-06-22T06:15:26;4.25;;;3.28;;
80494;SDS011;69819;48.798;11.770;2023-06-22T06:17:53;3.42;;;3.13;;
80494;SDS011;69819;48.798;11.770;2023-06-22T06:20:23;3.60;;;3.30;;
80494;SDS011;69819;48.798;11.770;2023-06-22T06:22:52;6.63;;;3.17;;
80494;SDS011;69819;48.798;11.770;2023-06-22T06:25:18;4.47;;;3.28;;
80494;SDS011;69819;48.798;11.770;2023-06-22T06:27:45;4.18;;;3.40;;
80494;SDS011;69819;48.798;11.770;2023-06-22T06:30:12;3.35;;;3.05;;
80494;SDS011;69819;48.798;11.770;2023-06-22T06:32:40;4.22;;;3.30;;
80494;SDS011;69819;48.798;11.770;2023-06-22T06:35:07;4.05;;;3.22;;
80494;SDS011;69819;48.798;11.770;2023-06-22T06:37:38;5.50;;;2.90;;
80494;SDS011;69819;48.798;11.770;2023-06-22T06:40:07;3.72;;;2.97;;
80494;SDS011;69819;48.798;11.770;2023-06-22T06:42:37;2.85;;;2.55;;
80494;SDS011;69819;48.798;11.770;2023-06-22T06:45:07;4.35;;;3.42;;
80494;SDS011;69819;48.798;11.770;2023-06-22T06:47:34;3.35;;;2.90;;
80494;SDS011;69819;48.798;11.770;2023-06-22T06:49:59;4.38;;;3.05;;
80494;SDS011;69819;48.798;11.770;2023-06-22T06:52:25;3.72;;;2.70;;
80494;SDS011;69819;48.798;11.770;2023-06-22T06:54:51;3.85;;;2.80;;
80494;SDS011;69819;48.798;11.770;2023-06-22T06:57:20;3.17;;;2.83;;
80494;SDS011;69819;48.798;11.770;2023-06-22T06:59:47;3.13;;;2.65;;
80494;SDS011;69819;48.798;11.770;2023-06-22T07:02:14;3.00;;;2.63;;
80494;SDS011;69819;48.798;11.770;2023-06-22T07:04:41;3.15;;;2.88;;
80494;SDS011;69819;48.798;11.770;2023-06-22T07:07:07;2.63;;;2.45;;
80494;SDS011;69819;48.798;11.770;2023-06-22T07:09:32;5.65;;;2.53;;
80494;SDS011;69819;48.798;11.770;2023-06-22T07:11:58;2.78;;;2.58;;
80494;SDS011;69819;48.798;11.770;2023-06-22T07:14:24;4.28;;;2.75;;
80494;SDS011;69819;48.798;11.770;2023-06-22T07:16:49;3.03;;;2.65;;
80494;SDS011;69819;48.798;11.770;2023-06-22T07:19:15;2.72;;;2.53;;
80494;SDS011;69819;48.798;11.770;2023-06-22T07:21:41;3.45;;;3.15;;
80494;SDS011;69819;48.798;11.770;2023-06-22T07:24:07;2.60;;;2.40;;
80494;SDS011;69819;48.798;11.770;2023-06-22T07:26:33;3.13;;;2.75;;
80494;SDS011;69819;48.798;11.770;2023-06-22T07:28:59;2.60;;;2.33;;
80494;SDS011;69819;48.798;11.770;2023-06-22T07:31:25;2.63;;;2.42;;
80494;SDS011;69819;48.798;11.770;2023-06-22T07:33:51;2.50;;;2.30;;
80494;SDS011;69819;48.798;11.770;2023-06-22T07:36:17;2.95;;;2.65;;
80494;SDS011;69819;48.798;11.770;2023-06-22T07:38:43;3.33;;;2.42;;
80494;SDS011;69819;48.798;11.770;2023-06-22T07:41:09;2.38;;;2.28;;
80494;SDS011;69819;48.798;11.770;2023-06-22T07:43:35;4.65;;;2.20;;
80494;SDS011;69819;48.798;11.770;2023-06-22T07:46:05;3.55;;;2.65;;
80494;SDS011;69819;48.798;11.770;2023-06-22T07:48:31;3.25;;;2.63;;
80494;SDS011;69819;48.798;11.770;2023-06-22T07:50:57;2.50;;;2.17;;
80494;SDS011;69819;48.798;11.770;2023-06-22T07:53:23;2.08;;;1.95;;
80494;SDS011;69819;48.798;11.770;2023-06-22T07:55:49;3.25;;;2.30;;
80494;SDS011;69819;48.798;11.770;2023-06-22T07:58:15;2.70;;;2.08;;
80494;SDS011;69819;48.798;11.770;2023-06-22T08:00:43;2.60;;;2.10;;
80494;SDS011;69819;48.798;11.770;2023-06-22T08:03:09;2.72;;;2.20;;
80494;SDS011;69819;48.798;11.770;2023-06-22T08:05:35;2.50;;;2.30;;
80494;SDS011;69819;48.798;11.770;2023-06-22T08:08:01;2.45;;;2.22;;
80494;SDS011;69819;48.798;11.770;2023-06-22T08:10:26;3.08;;;2.20;;
80494;SDS011;69819;48.798;11.770;2023-06-22T08:12:52;5.63;;;2.10;;
80494;SDS011;69819;48.798;11.770;2023-06-22T08:15:18;2.50;;;2.30;;
80494;SDS011;69819;48.798;11.770;2023-06-22T08:17:44;3.75;;;2.40;;
80494;SDS011;69819;48.798;11.770;2023-06-22T08:20:11;2.67;;;2.47;;
80494;SDS011;69819;48.798;11.770;2023-06-22T08:22:37;3.20;;;2.20;;
80494;SDS011;69819;48.798;11.770;2023-06-22T08:25:04;2.55;;;2.30;;
80494;SDS011;69819;48.798;11.770;2023-06-22T08:27:31;2.65;;;2.33;;
80494;SDS011;69819;48.798;11.770;2023-06-22T08:30:00;2.88;;;2.40;;
80494;SDS011;69819;48.798;11.770;2023-06-22T08:32:29;2.90;;;2.53;;
80494;SDS011;69819;48.798;11.770;2023-06-22T08:34:57;2.65;;;2.45;;
80494;SDS011;69819;48.798;11.770;2023-06-22T08:37:23;2.15;;;1.92;;
80494;SDS011;69819;48.798;11.770;2023-06-22T08:40:05;3.15;;;2.67;;
80494;SDS011;69819;48.798;11.770;2023-06-22T08:42:34;2.80;;;2.50;;
80494;SDS011;69819;48.798;11.770;2023-06-22T08:45:01;2.38;;;2.17;;
80494;SDS011;69819;48.798;11.770;2023-06-22T08:47:27;3.45;;;2.20;;
80494;SDS011;69819;48.798;11.770;2023-06-22T08:49:53;3.95;;;2.53;;
80494;SDS011;69819;48.798;11.770;2023-06-22T08:52:19;5.28;;;2.45;;
80494;SDS011;69819;48.798;11.770;2023-06-22T08:54:46;2.65;;;2.10;;
80494;SDS011;69819;48.798;11.770;2023-06-22T08:57:12;4.15;;;2.63;;
80494;SDS011;69819;48.798;11.770;2023-06-22T08:59:38;3.63;;;2.80;;
80494;SDS011;69819;48.798;11.770;2023-06-22T09:02:05;2.63;;;2.42;;
80494;SDS011;69819;48.798;11.770;2023-06-22T09:04:31;4.60;;;2.85;;
80494;SDS011;69819;48.798;11.770;2023-06-22T09:06:59;5.43;;;2.80;;
80494;SDS011;69819;48.798;11.770;2023-06-22T09:09:26;8.02;;;2.90;;
80494;SDS011;69819;48.798;11.770;2023-06-22T09:11:52;3.20;;;2.90;;
80494;SDS011;69819;48.798;11.770;2023-06-22T09:14:18;2.75;;;2.42;;
80494;SDS011;69819;48.798;11.770;2023-06-22T09:16:44;3.58;;;2.50;;
80494;SDS011;69819;48.798;11.770;2023-06-22T09:19:10;2.70;;;2.40;;
80494;SDS011;69819;48.798;11.770;2023-06-22T09:21:36;3.95;;;2.60;;
80494;SDS011;69819;48.798;11.770;2023-06-22T09:24:02;3.00;;;2.60;;
80494;SDS011;69819;48.798;11.770;2023-06-22T09:26:28;3.78;;;2.80;;
80494;SDS011;69819;48.798;11.770;2023-06-22T09:28:54;4.20;;;2.78;;
80494;SDS011;69819;48.798;11.770;2023-06-22T09:31:20;3.25;;;2.60;;
80494;SDS011;69819;48.798;11.770;2023-06-22T09:33:55;4.13;;;2.70;;
80494;SDS011;69819;48.798;11.770;2023-06-22T09:36:21;5.32;;;2.63;;
80494;SDS011;69819;48.798;11.770;2023-06-22T09:38:47;2.67;;;2.15;;
80494;SDS011;69819;48.798;11.770;2023-06-22T09:41:14;4.28;;;2.58;;
80494;SDS011;69819;48.798;11.770;2023-06-22T09:43:41;6.75;;;2.55;;
80494;SDS011;69819;48.798;11.770;2023-06-22T09:46:06;2.75;;;2.55;;
80494;SDS011;69819;48.798;11.770;2023-06-22T09:48:34;4.22;;;2.53;;
80494;SDS011;69819;48.798;11.770;2023-06-22T09:51:00;3.10;;;2.80;;
80494;SDS011;69819;48.798;11.770;2023-06-22T09:53:25;4.30;;;2.40;;
80494;SDS011;69819;48.798;11.770;2023-06-22T09:55:51;2.60;;;2.40;;
80494;SDS011;69819;48.798;11.770;2023-06-22T09:58:17;4.10;;;2.63;;
80494;SDS011;69819;48.798;11.770;2023-06-22T10:00:43;3.35;;;2.35;;
80494;SDS011;69819;48.798;11.770;2023-06-22T10:03:08;4.65;;;2.60;;
80494;SDS011;69819;48.798;11.770;2023-06-22T10:05:34;4.13;;;2.83;;
80494;SDS011;69819;48.798;11.770;2023-06-22T10:08:00;3.90;;;2.50;;
80494;SDS011;69819;48.798;11.770;2023-06-22T10:10:26;3.03;;;2.50;;
80494;SDS011;69819;48.798;11.770;2023-06-22T10:12:55;3.05;;;2.50;;
80494;SDS011;69819;48.798;11.770;2023-06-22T10:15:27;3.15;;;2.75;;
80494;SDS011;69819;48.798;11.770;2023-06-22T10:17:53;2.95;;;2.55;;
80494;SDS011;69819;48.798;11.770;2023-06-22T10:20:19;3.42;;;2.83;;
80494;SDS011;69819;48.798;11.770;2023-06-22T10:22:45;3.90;;;2.60;;
80494;SDS011;69819;48.798;11.770;2023-06-22T10:25:11;3.25;;;2.85;;
80494;SDS011;69819;48.798;11.770;2023-06-22T10:27:38;3.13;;;2.70;;
80494;SDS011;69819;48.798;11.770;2023-06-22T10:30:11;6.13;;;2.78;;
80494;SDS011;69819;48.798;11.770;2023-06-22T10:32:37;3.97;;;3.00;;
80494;SDS011;69819;48.798;11.770;2023-06-22T10:35:04;5.05;;;2.80;;
80494;SDS011;69819;48.798;11.770;2023-06-22T10:37:31;4.22;;;3.30;;
80494;SDS011;69819;48.798;11.770;2023-06-22T10:39:57;4.82;;;2.95;;
80494;SDS011;69819;48.798;11.770;2023-06-22T10:42:23;2.92;;;2.63;;
80494;SDS011;69819;48.798;11.770;2023-06-22T10:44:48;5.43;;;3.00;;
80494;SDS011;69819;48.798;11.770;2023-06-22T10:47:14;6.13;;;2.92;;
80494;SDS011;69819;48.798;11.770;2023-06-22T10:49:40;4.93;;;2.85;;
80494;SDS011;69819;48.798;11.770;2023-06-22T10:52:07;5.68;;;3.00;;
80494;SDS011;69819;48.798;11.770;2023-06-22T10:54:34;5.25;;;3.35;;
80494;SDS011;69819;48.798;11.770;2023-06-22T10:57:02;4.38;;;2.85;;
80494;SDS011;69819;48.798;11.770;2023-06-22T10:59:28;6.85;;;3.08;;
80494;SDS011;69819;48.798;11.770;2023-06-22T11:01:57;3.97;;;2.78;;
80494;SDS011;69819;48.798;11.770;2023-06-22T11:04:24;3.10;;;2.60;;
80494;SDS011;69819;48.798;11.770;2023-06-22T11:06:50;4.18;;;2.67;;
80494;SDS011;69819;48.798;11.770;2023-06-22T11:09:16;3.90;;;2.90;;
80494;SDS011;69819;48.798;11.770;2023-06-22T11:11:45;6.38;;;2.90;;
80494;SDS011;69819;48.798;11.770;2023-06-22T11:14:18;5.20;;;2.70;;
80494;SDS011;69819;48.798;11.770;2023-06-22T11:16:44;4.55;;;3.08;;
80494;SDS011;69819;48.798;11.770;2023-06-22T11:19:11;5.93;;;3.70;;
80494;SDS011;69819;48.798;11.770;2023-06-22T11:21:37;5.32;;;3.67;;
80494;SDS011;69819;48.798;11.770;2023-06-22T11:24:03;5.70;;;3.22;;
80494;SDS011;69819;48.798;11.770;2023-06-22T11:26:30;5.05;;;3.17;;
80494;SDS011;69819;48.798;11.770;2023-06-22T11:28:56;7.30;;;3.22;;
80494;SDS011;69819;48.798;11.770;2023-06-22T11:31:23;5.82;;;3.10;;
80494;SDS011;69819;48.798;11.770;2023-06-22T11:33:49;3.95;;;2.75;;
80494;SDS011;69819;48.798;11.770;2023-06-22T11:36:15;5.07;;;3.58;;
80494;SDS011;69819;48.798;11.770;2023-06-22T11:38:42;6.93;;;3.47;;
80494;SDS011;69819;48.798;11.770;2023-06-22T11:41:09;4.22;;;3.05;;
80494;SDS011;69819;48.798;11.770;2023-06-22T11:43:35;4.95;;;3.17;;
80494;SDS011;69819;48.798;11.770;2023-06-22T11:46:02;5.68;;;3.08;;
80494;SDS011;69819;48.798;11.770;2023-06-22T11:48:29;4.32;;;3.15;;
80494;SDS011;69819;48.798;11.770;2023-06-22T11:50:55;4.97;;;2.90;;
80494;SDS011;69819;48.798;11.770;2023-06-22T11:53:23;3.38;;;3.08;;
80494;SDS011;69819;48.798;11.770;2023-06-22T11:55:50;3.67;;;3.33;;
80494;SDS011;69819;48.798;11.770;2023-06-22T11:58:17;5.88;;;3.17;;
80494;SDS011;69819;48.798;11.770;2023-06-22T12:00:43;5.93;;;3.40;;
80494;SDS011;69819;48.798;11.770;2023-06-22T12:03:10;5.18;;;3.17;;
80494;SDS011;69819;48.798;11.770;2023-06-22T12:05:36;5.20;;;3.08;;
80494;SDS011;69819;48.798;11.770;2023-06-22T12:08:03;4.95;;;3.17;;
80494;SDS011;69819;48.798;11.770;2023-06-22T12:10:29;4.50;;;3.20;;
80494;SDS011;69819;48.798;11.770;2023-06-22T12:12:55;4.72;;;2.92;;
80494;SDS011;69819;48.798;11.770;2023-06-22T12:15:25;5.35;;;3.17;;
80494;SDS011;69819;48.798;11.770;2023-06-22T12:17:52;4.97;;;3.35;;
80494;SDS011;69819;48.798;11.770;2023-06-22T12:20:18;6.80;;;3.35;;
80494;SDS011;69819;48.798;11.770;2023-06-22T12:22:44;4.70;;;3.40;;
80494;SDS011;69819;48.798;11.770;2023-06-22T12:25:10;6.50;;;3.65;;
80494;SDS011;69819;48.798;11.770;2023-06-22T12:27:37;4.82;;;3.03;;
80494;SDS011;69819;48.798;11.770;2023-06-22T12:30:03;7.65;;;3.33;;
80494;SDS011;69819;48.798;11.770;2023-06-22T12:32:30;4.85;;;3.25;;
80494;SDS011;69819;48.798;11.770;2023-06-22T12:34:56;5.63;;;3.00;;
80494;SDS011;69819;48.798;11.770;2023-06-22T12:37:22;5.28;;;3.20;;
80494;SDS011;69819;48.798;11.770;2023-06-22T12:39:48;6.88;;;3.40;;
80494;SDS011;69819;48.798;11.770;2023-06-22T12:42:15;4.43;;;3.63;;
80494;SDS011;69819;48.798;11.770;2023-06-22T12:44:41;6.15;;;2.88;;
80494;SDS011;69819;48.798;11.770;2023-06-22T12:47:08;5.25;;;3.45;;
80494;SDS011;69819;48.798;11.770;2023-06-22T12:49:37;4.97;;;3.08;;
80494;SDS011;69819;48.798;11.770;2023-06-22T12:52:08;3.67;;;3.13;;
80494;SDS011;69819;48.798;11.770;2023-06-22T12:54:36;6.15;;;3.42;;
80494;SDS011;69819;48.798;11.770;2023-06-22T12:57:02;5.10;;;3.25;;
80494;SDS011;69819;48.798;11.770;2023-06-22T12:59:28;5.30;;;3.08;;
80494;SDS011;69819;48.798;11.770;2023-06-22T13:01:53;4.95;;;3.20;;
80494;SDS011;69819;48.798;11.770;2023-06-22T13:04:20;5.03;;;3.03;;
80494;SDS011;69819;48.798;11.770;2023-06-22T13:06:46;4.22;;;3.22;;
80494;SDS011;69819;48.798;11.770;2023-06-22T13:09:13;6.47;;;3.22;;
80494;SDS011;69819;48.798;11.770;2023-06-22T13:11:40;4.38;;;3.35;;
80494;SDS011;69819;48.798;11.770;2023-06-22T13:14:08;4.35;;;3.05;;
80494;SDS011;69819;48.798;11.770;2023-06-22T13:16:33;6.03;;;3.20;;
80494;SDS011;69819;48.798;11.770;2023-06-22T13:18:59;4.80;;;2.95;;
80494;SDS011;69819;48.798;11.770;2023-06-22T13:21:25;4.50;;;3.40;;
80494;SDS011;69819;48.798;11.770;2023-06-22T13:23:51;4.97;;;3.13;;
80494;SDS011;69819;48.798;11.770;2023-06-22T13:26:17;6.60;;;3.70;;
80494;SDS011;69819;48.798;11.770;2023-06-22T13:28:42;4.55;;;3.38;;
80494;SDS011;69819;48.798;11.770;2023-06-22T13:31:09;5.22;;;3.10;;
80494;SDS011;69819;48.798;11.770;2023-06-22T13:33:35;4.72;;;3.33;;
80494;SDS011;69819;48.798;11.770;2023-06-22T13:36:03;6.93;;;3.63;;
80494;SDS011;69819;48.798;11.770;2023-06-22T13:38:31;4.55;;;3.58;;
80494;SDS011;69819;48.798;11.770;2023-06-22T13:40:57;5.82;;;3.30;;
80494;SDS011;69819;48.798;11.770;2023-06-22T13:43:24;7.25;;;3.53;;
80494;SDS011;69819;48.798;11.770;2023-06-22T13:45:52;5.85;;;3.47;;
80494;SDS011;69819;48.798;11.770;2023-06-22T13:48:18;6.28;;;3.22;;
80494;SDS011;69819;48.798;11.770;2023-06-22T13:50:43;5.57;;;3.90;;
80494;SDS011;69819;48.798;11.770;2023-06-22T13:53:09;4.90;;;3.20;;
80494;SDS011;69819;48.798;11.770;2023-06-22T13:55:35;5.68;;;3.60;;
80494;SDS011;69819;48.798;11.770;2023-06-22T13:58:01;3.75;;;2.83;;
80494;SDS011;69819;48.798;11.770;2023-06-22T14:00:26;5.07;;;3.08;;
80494;SDS011;69819;48.798;11.770;2023-06-22T14:02:53;4.50;;;3.40;;
80494;SDS011;69819;48.798;11.770;2023-06-22T14:05:19;5.03;;;3.58;;
80494;SDS011;69819;48.798;11.770;2023-06-22T14:07:45;5.72;;;3.33;;
80494;SDS011;69819;48.798;11.770;2023-06-22T14:10:11;4.40;;;3.17;;
80494;SDS011;69819;48.798;11.770;2023-06-22T14:12:37;3.85;;;3.40;;
80494;SDS011;69819;48.798;11.770;2023-06-22T14:15:03;4.60;;;3.13;;
80494;SDS011;69819;48.798;11.770;2023-06-22T14:17:30;5.85;;;3.17;;
80494;SDS011;69819;48.798;11.770;2023-06-22T14:19:55;4.40;;;3.25;;
80494;SDS011;69819;48.798;11.770;2023-06-22T14:22:21;4.60;;;3.13;;
80494;SDS011;69819;48.798;11.770;2023-06-22T14:24:48;5.43;;;3.35;;
80494;SDS011;69819;48.798;11.770;2023-06-22T14:27:14;6.75;;;3.65;;
80494;SDS011;69819;48.798;11.770;2023-06-22T14:29:41;4.43;;;3.22;;
80494;SDS011;69819;48.798;11.770;2023-06-22T14:32:07;4.38;;;3.72;;
80494;SDS011;69819;48.798;11.770;2023-06-22T14:34:34;5.35;;;3.38;;
80494;SDS011;69819;48.798;11.770;2023-06-22T14:37:01;6.03;;;3.05;;
80494;SDS011;69819;48.798;11.770;2023-06-22T14:39:27;3.75;;;3.10;;
80494;SDS011;69819;48.798;11.770;2023-06-22T14:41:53;6.13;;;3.80;;
80494;SDS011;69819;48.798;11.770;2023-06-22T14:44:19;4.70;;;3.53;;